sensor_id;sensor_type;location;lat;lon;timestamp;P1;durP1;ratioP1;P2;durP2;ratioP2
10657;SDS011;5377;43.276;26.930;2023-05-23T00:01:38;7.93;;;4.67;;
10657;SDS011;5377;43.276;26.930;2023-05-23T00:04:05;6.30;;;3.08;;
10657;SDS011;5377;43.276;26.930;2023-05-23T00:06:33;6.97;;;3.33;;
10657;SDS011;5377;43.276;26.930;2023-05-23T00:09:00;5.70;;;3.50;;
10657;SDS011;5377;43.276;26.930;2023-05-23T00:11:27;4.47;;;3.30;;
10657;SDS011;5377;43.276;26.930;2023-05-23T00:13:55;6.97;;;3.05;;
10657;SDS011;5377;43.276;26.930;2023-05-23T00:16:25;7.00;;;5.60;;
10657;SDS011;5377;43.276;26.930;2023-05-23T00:18:53;4.53;;;3.17;;
10657;SDS011;5377;43.276;26.930;2023-05-23T00:21:21;7.20;;;3.75;;
10657;SDS011;5377;43.276;26.930;2023-05-23T00:23:49;6.70;;;3.72;;
10657;SDS011;5377;43.276;26.930;2023-05-23T00:26:17;7.40;;;3.58;;
10657;SDS011;5377;43.276;26.930;2023-05-23T00:28:45;4.03;;;3.63;;
10657;SDS011;5377;43.276;26.930;2023-05-23T00:31:12;4.25;;;3.55;;
10657;SDS011;5377;43.276;26.930;2023-05-23T00:33:39;5.45;;;3.40;;
10657;SDS011;5377;43.276;26.930;2023-05-23T00:36:07;5.40;;;3.67;;
10657;SDS011;5377;43.276;26.930;2023-05-23T00:38:34;4.65;;;3.95;;
10657;SDS011;5377;43.276;26.930;2023-05-23T00:41:01;5.50;;;3.65;;
10657;SDS011;5377;43.276;26.930;2023-05-23T00:43:28;7.00;;;3.70;;
10657;SDS011;5377;43.276;26.930;2023-05-23T00:45:55;4.32;;;3.63;;
10657;SDS011;5377;43.276;26.930;2023-05-23T00:48:23;6.70;;;5.45;;
10657;SDS011;5377;43.276;26.930;2023-05-23T00:50:50;4.15;;;3.60;;
10657;SDS011;5377;43.276;26.930;2023-05-23T00:53:19;4.18;;;3.70;;
10657;SDS011;5377;43.276;26.930;2023-05-23T00:55:47;5.43;;;3.15;;
10657;SDS011;5377;43.276;26.930;2023-05-23T00:58:14;6.07;;;2.95;;
10657;SDS011;5377;43.276;26.930;2023-05-23T01:00:41;6.28;;;4.18;;
10657;SDS011;5377;43.276;26.930;2023-05-23T01:03:09;5.30;;;4.10;;
10657;SDS011;5377;43.276;26.930;2023-05-23T01:05:42;8.57;;;7.10;;
10657;SDS011;5377;43.276;26.930;2023-05-23T01:08:09;4.88;;;3.78;;
10657;SDS011;5377;43.276;26.930;2023-05-23T01:10:37;6.72;;;3.95;;
10657;SDS011;5377;43.276;26.930;2023-05-23T01:13:08;11.20;;;7.20;;
10657;SDS011;5377;43.276;26.930;2023-05-23T01:15:44;6.35;;;5.32;;
10657;SDS011;5377;43.276;26.930;2023-05-23T01:18:17;5.45;;;4.57;;
10657;SDS011;5377;43.276;26.930;2023-05-23T01:20:49;4.65;;;4.25;;
10657;SDS011;5377;43.276;26.930;2023-05-23T01:23:34;9.15;;;6.95;;
10657;SDS011;5377;43.276;26.930;2023-05-23T01:26:26;16.25;;;10.60;;
10657;SDS011;5377;43.276;26.930;2023-05-23T01:29:02;6.68;;;5.07;;
10657;SDS011;5377;43.276;26.930;2023-05-23T01:31:36;7.18;;;4.47;;
10657;SDS011;5377;43.276;26.930;2023-05-23T01:34:09;4.40;;;3.80;;
10657;SDS011;5377;43.276;26.930;2023-05-23T01:36:38;5.10;;;3.22;;
10657;SDS011;5377;43.276;26.930;2023-05-23T01:39:07;4.57;;;3.83;;
10657;SDS011;5377;43.276;26.930;2023-05-23T01:41:34;4.03;;;3.30;;
10657;SDS011;5377;43.276;26.930;2023-05-23T01:44:03;2.95;;;2.75;;
10657;SDS011;5377;43.276;26.930;2023-05-23T01:46:30;7.97;;;3.70;;
10657;SDS011;5377;43.276;26.930;2023-05-23T01:48:58;7.15;;;4.25;;
10657;SDS011;5377;43.276;26.930;2023-05-23T01:51:27;6.45;;;4.03;;
10657;SDS011;5377;43.276;26.930;2023-05-23T01:53:55;6.93;;;3.95;;
10657;SDS011;5377;43.276;26.930;2023-05-23T01:56:22;5.70;;;5.00;;
10657;SDS011;5377;43.276;26.930;2023-05-23T01:58:51;8.82;;;3.92;;
10657;SDS011;5377;43.276;26.930;2023-05-23T02:01:19;5.18;;;3.92;;
10657;SDS011;5377;43.276;26.930;2023-05-23T02:03:46;8.02;;;4.90;;
10657;SDS011;5377;43.276;26.930;2023-05-23T02:06:14;7.90;;;4.50;;
10657;SDS011;5377;43.276;26.930;2023-05-23T02:08:41;5.13;;;3.58;;
10657;SDS011;5377;43.276;26.930;2023-05-23T02:11:08;6.07;;;3.30;;
10657;SDS011;5377;43.276;26.930;2023-05-23T02:13:34;8.48;;;4.47;;
10657;SDS011;5377;43.276;26.930;2023-05-23T02:16:01;5.15;;;4.68;;
10657;SDS011;5377;43.276;26.930;2023-05-23T02:18:30;5.13;;;3.50;;
10657;SDS011;5377;43.276;26.930;2023-05-23T02:20:57;6.07;;;3.88;;
10657;SDS011;5377;43.276;26.930;2023-05-23T02:23:24;5.65;;;3.95;;
10657;SDS011;5377;43.276;26.930;2023-05-23T02:25:50;15.68;;;5.10;;
10657;SDS011;5377;43.276;26.930;2023-05-23T02:28:17;7.70;;;4.68;;
10657;SDS011;5377;43.276;26.930;2023-05-23T02:30:44;8.68;;;4.07;;
10657;SDS011;5377;43.276;26.930;2023-05-23T02:33:11;5.53;;;3.67;;
10657;SDS011;5377;43.276;26.930;2023-05-23T02:35:39;8.40;;;3.65;;
10657;SDS011;5377;43.276;26.930;2023-05-23T02:38:06;8.52;;;4.63;;
10657;SDS011;5377;43.276;26.930;2023-05-23T02:40:33;4.57;;;4.18;;
10657;SDS011;5377;43.276;26.930;2023-05-23T02:42:59;5.20;;;4.72;;
10657;SDS011;5377;43.276;26.930;2023-05-23T02:45:26;7.53;;;3.75;;
10657;SDS011;5377;43.276;26.930;2023-05-23T02:47:53;5.72;;;4.38;;
10657;SDS011;5377;43.276;26.930;2023-05-23T02:50:20;6.05;;;3.60;;
10657;SDS011;5377;43.276;26.930;2023-05-23T02:52:48;8.05;;;4.65;;
10657;SDS011;5377;43.276;26.930;2023-05-23T02:55:15;6.82;;;4.47;;
10657;SDS011;5377;43.276;26.930;2023-05-23T02:57:42;5.25;;;3.97;;
10657;SDS011;5377;43.276;26.930;2023-05-23T03:00:09;4.00;;;3.40;;
10657;SDS011;5377;43.276;26.930;2023-05-23T03:02:37;6.93;;;4.90;;
10657;SDS011;5377;43.276;26.930;2023-05-23T03:05:04;6.75;;;5.00;;
10657;SDS011;5377;43.276;26.930;2023-05-23T03:07:32;8.63;;;4.22;;
10657;SDS011;5377;43.276;26.930;2023-05-23T03:10:00;4.05;;;3.15;;
10657;SDS011;5377;43.276;26.930;2023-05-23T03:12:27;9.50;;;4.38;;
10657;SDS011;5377;43.276;26.930;2023-05-23T03:14:54;4.88;;;4.35;;
10657;SDS011;5377;43.276;26.930;2023-05-23T03:17:23;7.75;;;4.38;;
10657;SDS011;5377;43.276;26.930;2023-05-23T03:19:51;4.82;;;3.72;;
10657;SDS011;5377;43.276;26.930;2023-05-23T03:22:18;6.70;;;3.92;;
10657;SDS011;5377;43.276;26.930;2023-05-23T03:24:44;5.25;;;3.65;;
10657;SDS011;5377;43.276;26.930;2023-05-23T03:27:13;8.60;;;4.22;;
10657;SDS011;5377;43.276;26.930;2023-05-23T03:29:39;9.07;;;3.95;;
10657;SDS011;5377;43.276;26.930;2023-05-23T03:32:06;8.68;;;3.80;;
10657;SDS011;5377;43.276;26.930;2023-05-23T03:34:33;5.38;;;4.13;;
10657;SDS011;5377;43.276;26.930;2023-05-23T03:37:00;6.50;;;4.07;;
10657;SDS011;5377;43.276;26.930;2023-05-23T03:39:27;6.47;;;4.93;;
10657;SDS011;5377;43.276;26.930;2023-05-23T03:41:54;8.20;;;3.75;;
10657;SDS011;5377;43.276;26.930;2023-05-23T03:44:22;8.82;;;4.20;;
10657;SDS011;5377;43.276;26.930;2023-05-23T03:46:49;11.73;;;3.83;;
10657;SDS011;5377;43.276;26.930;2023-05-23T03:49:16;12.63;;;4.60;;
10657;SDS011;5377;43.276;26.930;2023-05-23T03:51:43;9.75;;;4.82;;
10657;SDS011;5377;43.276;26.930;2023-05-23T03:54:09;10.05;;;4.63;;
10657;SDS011;5377;43.276;26.930;2023-05-23T03:56:36;12.40;;;4.93;;
10657;SDS011;5377;43.276;26.930;2023-05-23T03:59:03;11.70;;;4.40;;
10657;SDS011;5377;43.276;26.930;2023-05-23T04:01:31;8.32;;;4.25;;
10657;SDS011;5377;43.276;26.930;2023-05-23T04:03:58;6.38;;;4.00;;
10657;SDS011;5377;43.276;26.930;2023-05-23T04:06:25;12.48;;;4.57;;
10657;SDS011;5377;43.276;26.930;2023-05-23T04:08:55;9.63;;;5.07;;
10657;SDS011;5377;43.276;26.930;2023-05-23T04:11:22;7.28;;;4.65;;
10657;SDS011;5377;43.276;26.930;2023-05-23T04:13:48;7.97;;;5.05;;
10657;SDS011;5377;43.276;26.930;2023-05-23T04:16:16;5.28;;;4.45;;
10657;SDS011;5377;43.276;26.930;2023-05-23T04:18:44;11.23;;;4.88;;
10657;SDS011;5377;43.276;26.930;2023-05-23T04:21:12;8.93;;;5.28;;
10657;SDS011;5377;43.276;26.930;2023-05-23T04:23:39;5.55;;;4.40;;
10657;SDS011;5377;43.276;26.930;2023-05-23T04:26:06;8.10;;;4.93;;
10657;SDS011;5377;43.276;26.930;2023-05-23T04:28:34;6.60;;;4.50;;
10657;SDS011;5377;43.276;26.930;2023-05-23T04:31:01;10.38;;;5.53;;
10657;SDS011;5377;43.276;26.930;2023-05-23T04:33:28;12.20;;;5.40;;
10657;SDS011;5377;43.276;26.930;2023-05-23T04:35:57;7.70;;;5.47;;
10657;SDS011;5377;43.276;26.930;2023-05-23T04:38:23;6.80;;;4.93;;
10657;SDS011;5377;43.276;26.930;2023-05-23T04:40:52;11.43;;;5.30;;
10657;SDS011;5377;43.276;26.930;2023-05-23T04:43:19;7.20;;;4.30;;
10657;SDS011;5377;43.276;26.930;2023-05-23T04:45:46;8.90;;;5.47;;
10657;SDS011;5377;43.276;26.930;2023-05-23T04:48:14;14.07;;;5.63;;
10657;SDS011;5377;43.276;26.930;2023-05-23T04:50:42;15.77;;;6.63;;
10657;SDS011;5377;43.276;26.930;2023-05-23T04:53:13;12.48;;;5.22;;
10657;SDS011;5377;43.276;26.930;2023-05-23T04:55:39;9.27;;;4.80;;
10657;SDS011;5377;43.276;26.930;2023-05-23T04:58:06;12.25;;;4.68;;
10657;SDS011;5377;43.276;26.930;2023-05-23T05:00:33;8.32;;;4.78;;
10657;SDS011;5377;43.276;26.930;2023-05-23T05:03:01;7.47;;;4.30;;
10657;SDS011;5377;43.276;26.930;2023-05-23T05:05:28;10.32;;;4.22;;
10657;SDS011;5377;43.276;26.930;2023-05-23T05:07:54;7.72;;;3.58;;
10657;SDS011;5377;43.276;26.930;2023-05-23T05:10:23;17.02;;;4.72;;
10657;SDS011;5377;43.276;26.930;2023-05-23T05:12:49;13.80;;;4.90;;
10657;SDS011;5377;43.276;26.930;2023-05-23T05:15:16;6.28;;;3.90;;
10657;SDS011;5377;43.276;26.930;2023-05-23T05:17:44;17.00;;;5.75;;
10657;SDS011;5377;43.276;26.930;2023-05-23T05:20:11;13.52;;;4.50;;
10657;SDS011;5377;43.276;26.930;2023-05-23T05:22:38;15.05;;;5.35;;
10657;SDS011;5377;43.276;26.930;2023-05-23T05:25:07;8.70;;;3.63;;
10657;SDS011;5377;43.276;26.930;2023-05-23T05:27:36;8.07;;;3.88;;
10657;SDS011;5377;43.276;26.930;2023-05-23T05:30:05;11.38;;;4.55;;
10657;SDS011;5377;43.276;26.930;2023-05-23T05:32:33;8.13;;;4.13;;
10657;SDS011;5377;43.276;26.930;2023-05-23T05:34:59;7.15;;;4.10;;
10657;SDS011;5377;43.276;26.930;2023-05-23T05:37:27;27.48;;;7.22;;
10657;SDS011;5377;43.276;26.930;2023-05-23T05:39:53;17.45;;;6.45;;
10657;SDS011;5377;43.276;26.930;2023-05-23T05:42:21;9.57;;;4.55;;
10657;SDS011;5377;43.276;26.930;2023-05-23T05:44:49;11.48;;;3.30;;
10657;SDS011;5377;43.276;26.930;2023-05-23T05:47:16;7.07;;;4.00;;
10657;SDS011;5377;43.276;26.930;2023-05-23T05:49:43;21.73;;;5.18;;
10657;SDS011;5377;43.276;26.930;2023-05-23T05:52:09;12.48;;;4.30;;
10657;SDS011;5377;43.276;26.930;2023-05-23T05:54:36;21.23;;;6.65;;
10657;SDS011;5377;43.276;26.930;2023-05-23T05:57:03;6.95;;;4.28;;
10657;SDS011;5377;43.276;26.930;2023-05-23T05:59:30;7.57;;;3.80;;
10657;SDS011;5377;43.276;26.930;2023-05-23T06:01:58;3.80;;;3.17;;
10657;SDS011;5377;43.276;26.930;2023-05-23T06:04:25;6.47;;;3.72;;
10657;SDS011;5377;43.276;26.930;2023-05-23T06:06:52;6.28;;;3.85;;
10657;SDS011;5377;43.276;26.930;2023-05-23T06:09:19;7.30;;;3.30;;
10657;SDS011;5377;43.276;26.930;2023-05-23T06:11:46;9.73;;;3.97;;
10657;SDS011;5377;43.276;26.930;2023-05-23T06:14:12;11.82;;;3.80;;
10657;SDS011;5377;43.276;26.930;2023-05-23T06:16:39;9.77;;;4.18;;
10657;SDS011;5377;43.276;26.930;2023-05-23T06:19:07;8.77;;;3.22;;
10657;SDS011;5377;43.276;26.930;2023-05-23T06:21:34;6.28;;;3.58;;
10657;SDS011;5377;43.276;26.930;2023-05-23T06:24:01;4.88;;;3.85;;
10657;SDS011;5377;43.276;26.930;2023-05-23T06:26:28;6.75;;;3.15;;
10657;SDS011;5377;43.276;26.930;2023-05-23T06:28:55;10.32;;;4.63;;
10657;SDS011;5377;43.276;26.930;2023-05-23T06:31:21;10.55;;;5.78;;
10657;SDS011;5377;43.276;26.930;2023-05-23T06:33:48;12.55;;;5.22;;
10657;SDS011;5377;43.276;26.930;2023-05-23T06:36:16;8.95;;;4.88;;
10657;SDS011;5377;43.276;26.930;2023-05-23T06:38:43;6.32;;;3.47;;
10657;SDS011;5377;43.276;26.930;2023-05-23T06:41:10;8.45;;;4.15;;
10657;SDS011;5377;43.276;26.930;2023-05-23T06:43:37;5.43;;;3.63;;
10657;SDS011;5377;43.276;26.930;2023-05-23T06:46:03;5.00;;;2.60;;
10657;SDS011;5377;43.276;26.930;2023-05-23T06:48:30;4.65;;;2.67;;
10657;SDS011;5377;43.276;26.930;2023-05-23T06:50:57;4.45;;;2.40;;
10657;SDS011;5377;43.276;26.930;2023-05-23T06:53:25;6.53;;;2.90;;
10657;SDS011;5377;43.276;26.930;2023-05-23T06:55:52;7.07;;;2.70;;
10657;SDS011;5377;43.276;26.930;2023-05-23T06:58:20;5.30;;;2.75;;
10657;SDS011;5377;43.276;26.930;2023-05-23T07:00:49;7.70;;;3.28;;
10657;SDS011;5377;43.276;26.930;2023-05-23T07:03:16;5.80;;;2.38;;
10657;SDS011;5377;43.276;26.930;2023-05-23T07:05:43;7.18;;;2.70;;
10657;SDS011;5377;43.276;26.930;2023-05-23T07:08:09;6.45;;;2.58;;
10657;SDS011;5377;43.276;26.930;2023-05-23T07:10:38;4.40;;;2.50;;
10657;SDS011;5377;43.276;26.930;2023-05-23T07:13:06;9.10;;;3.08;;
10657;SDS011;5377;43.276;26.930;2023-05-23T07:15:33;4.32;;;2.33;;
10657;SDS011;5377;43.276;26.930;2023-05-23T07:18:00;6.72;;;2.97;;
10657;SDS011;5377;43.276;26.930;2023-05-23T07:20:27;5.38;;;2.90;;
10657;SDS011;5377;43.276;26.930;2023-05-23T07:22:53;4.93;;;2.97;;
10657;SDS011;5377;43.276;26.930;2023-05-23T07:25:21;3.70;;;2.55;;
10657;SDS011;5377;43.276;26.930;2023-05-23T07:27:49;5.82;;;3.47;;
10657;SDS011;5377;43.276;26.930;2023-05-23T07:30:18;6.10;;;2.38;;
10657;SDS011;5377;43.276;26.930;2023-05-23T07:32:45;5.07;;;2.75;;
10657;SDS011;5377;43.276;26.930;2023-05-23T07:35:12;15.35;;;4.13;;
10657;SDS011;5377;43.276;26.930;2023-05-23T07:37:39;8.85;;;3.15;;
10657;SDS011;5377;43.276;26.930;2023-05-23T07:40:07;5.18;;;3.30;;
10657;SDS011;5377;43.276;26.930;2023-05-23T07:42:34;3.63;;;2.78;;
10657;SDS011;5377;43.276;26.930;2023-05-23T07:45:02;5.68;;;3.53;;
10657;SDS011;5377;43.276;26.930;2023-05-23T07:47:30;10.07;;;2.97;;
10657;SDS011;5377;43.276;26.930;2023-05-23T07:49:56;3.75;;;3.08;;
10657;SDS011;5377;43.276;26.930;2023-05-23T07:52:28;9.85;;;5.72;;
10657;SDS011;5377;43.276;26.930;2023-05-23T07:54:56;8.45;;;3.03;;
10657;SDS011;5377;43.276;26.930;2023-05-23T07:57:23;3.13;;;2.92;;
10657;SDS011;5377;43.276;26.930;2023-05-23T07:59:50;3.42;;;2.85;;
10657;SDS011;5377;43.276;26.930;2023-05-23T08:02:18;9.10;;;3.20;;
10657;SDS011;5377;43.276;26.930;2023-05-23T08:04:46;7.50;;;3.42;;
10657;SDS011;5377;43.276;26.930;2023-05-23T08:07:14;7.43;;;2.95;;
10657;SDS011;5377;43.276;26.930;2023-05-23T08:09:41;4.90;;;2.97;;
10657;SDS011;5377;43.276;26.930;2023-05-23T08:12:08;6.70;;;2.33;;
10657;SDS011;5377;43.276;26.930;2023-05-23T08:14:35;6.78;;;2.55;;
10657;SDS011;5377;43.276;26.930;2023-05-23T08:17:02;2.42;;;2.17;;
10657;SDS011;5377;43.276;26.930;2023-05-23T08:19:30;4.85;;;1.90;;
10657;SDS011;5377;43.276;26.930;2023-05-23T08:21:57;6.00;;;2.35;;
10657;SDS011;5377;43.276;26.930;2023-05-23T08:24:24;6.95;;;2.70;;
10657;SDS011;5377;43.276;26.930;2023-05-23T08:26:51;6.68;;;1.80;;
10657;SDS011;5377;43.276;26.930;2023-05-23T08:29:17;7.68;;;2.75;;
10657;SDS011;5377;43.276;26.930;2023-05-23T08:31:44;5.50;;;2.10;;
10657;SDS011;5377;43.276;26.930;2023-05-23T08:34:11;6.15;;;2.55;;
10657;SDS011;5377;43.276;26.930;2023-05-23T08:36:39;5.47;;;1.75;;
10657;SDS011;5377;43.276;26.930;2023-05-23T08:39:07;7.40;;;3.13;;
10657;SDS011;5377;43.276;26.930;2023-05-23T08:41:34;3.33;;;2.10;;
10657;SDS011;5377;43.276;26.930;2023-05-23T08:44:01;17.60;;;4.78;;
10657;SDS011;5377;43.276;26.930;2023-05-23T08:46:28;4.10;;;2.28;;
10657;SDS011;5377;43.276;26.930;2023-05-23T08:48:55;4.43;;;2.45;;
10657;SDS011;5377;43.276;26.930;2023-05-23T08:51:24;10.57;;;3.00;;
10657;SDS011;5377;43.276;26.930;2023-05-23T08:53:54;4.72;;;2.10;;
10657;SDS011;5377;43.276;26.930;2023-05-23T08:56:22;13.02;;;3.75;;
10657;SDS011;5377;43.276;26.930;2023-05-23T08:58:49;14.05;;;3.80;;
10657;SDS011;5377;43.276;26.930;2023-05-23T09:01:18;10.93;;;3.42;;
10657;SDS011;5377;43.276;26.930;2023-05-23T09:03:46;4.15;;;1.98;;
10657;SDS011;5377;43.276;26.930;2023-05-23T09:06:15;4.35;;;1.98;;
10657;SDS011;5377;43.276;26.930;2023-05-23T09:08:43;6.93;;;2.55;;
10657;SDS011;5377;43.276;26.930;2023-05-23T09:11:12;23.38;;;5.65;;
10657;SDS011;5377;43.276;26.930;2023-05-23T09:13:39;7.28;;;2.70;;
10657;SDS011;5377;43.276;26.930;2023-05-23T09:16:08;3.72;;;2.20;;
10657;SDS011;5377;43.276;26.930;2023-05-23T09:18:37;9.65;;;2.53;;
10657;SDS011;5377;43.276;26.930;2023-05-23T09:21:05;8.52;;;2.75;;
10657;SDS011;5377;43.276;26.930;2023-05-23T09:23:34;11.93;;;3.70;;
10657;SDS011;5377;43.276;26.930;2023-05-23T09:26:01;10.80;;;3.10;;
10657;SDS011;5377;43.276;26.930;2023-05-23T09:28:30;11.70;;;4.32;;
10657;SDS011;5377;43.276;26.930;2023-05-23T09:30:58;16.15;;;4.93;;
10657;SDS011;5377;43.276;26.930;2023-05-23T09:33:33;7.63;;;2.50;;
10657;SDS011;5377;43.276;26.930;2023-05-23T09:36:02;3.10;;;1.77;;
10657;SDS011;5377;43.276;26.930;2023-05-23T09:38:30;9.52;;;2.95;;
10657;SDS011;5377;43.276;26.930;2023-05-23T09:40:57;8.40;;;3.00;;
10657;SDS011;5377;43.276;26.930;2023-05-23T09:43:25;4.13;;;2.47;;
10657;SDS011;5377;43.276;26.930;2023-05-23T09:45:53;3.38;;;2.42;;
10657;SDS011;5377;43.276;26.930;2023-05-23T09:48:27;7.07;;;2.95;;
10657;SDS011;5377;43.276;26.930;2023-05-23T09:50:54;17.60;;;4.93;;
10657;SDS011;5377;43.276;26.930;2023-05-23T09:53:21;6.00;;;2.80;;
10657;SDS011;5377;43.276;26.930;2023-05-23T09:55:49;6.65;;;2.95;;
10657;SDS011;5377;43.276;26.930;2023-05-23T09:58:18;3.95;;;2.50;;
10657;SDS011;5377;43.276;26.930;2023-05-23T10:00:45;7.10;;;2.22;;
10657;SDS011;5377;43.276;26.930;2023-05-23T10:03:18;6.22;;;2.97;;
10657;SDS011;5377;43.276;26.930;2023-05-23T10:05:50;11.15;;;2.92;;
10657;SDS011;5377;43.276;26.930;2023-05-23T10:08:23;9.23;;;3.17;;
10657;SDS011;5377;43.276;26.930;2023-05-23T10:14:14;6.90;;;2.80;;
10657;SDS011;5377;43.276;26.930;2023-05-23T10:16:45;6.35;;;2.47;;
10657;SDS011;5377;43.276;26.930;2023-05-23T10:19:22;8.13;;;2.80;;
10657;SDS011;5377;43.276;26.930;2023-05-23T10:21:56;10.70;;;3.00;;
10657;SDS011;5377;43.276;26.930;2023-05-23T10:24:25;15.38;;;3.92;;
10657;SDS011;5377;43.276;26.930;2023-05-23T10:26:53;13.35;;;3.50;;
10657;SDS011;5377;43.276;26.930;2023-05-23T10:29:20;12.80;;;3.60;;
10657;SDS011;5377;43.276;26.930;2023-05-23T10:31:48;19.27;;;4.63;;
10657;SDS011;5377;43.276;26.930;2023-05-23T10:34:18;11.48;;;3.38;;
10657;SDS011;5377;43.276;26.930;2023-05-23T10:36:55;10.38;;;4.30;;
10657;SDS011;5377;43.276;26.930;2023-05-23T10:39:30;7.10;;;3.58;;
10657;SDS011;5377;43.276;26.930;2023-05-23T10:42:10;5.75;;;3.42;;
10657;SDS011;5377;43.276;26.930;2023-05-23T10:44:42;6.38;;;4.45;;
10657;SDS011;5377;43.276;26.930;2023-05-23T10:47:09;6.75;;;3.38;;
10657;SDS011;5377;43.276;26.930;2023-05-23T10:49:38;5.15;;;3.10;;
10657;SDS011;5377;43.276;26.930;2023-05-23T10:52:07;5.47;;;3.88;;
10657;SDS011;5377;43.276;26.930;2023-05-23T10:54:35;11.80;;;4.72;;
10657;SDS011;5377;43.276;26.930;2023-05-23T10:57:02;19.80;;;8.10;;
10657;SDS011;5377;43.276;26.930;2023-05-23T10:59:29;6.13;;;4.68;;
10657;SDS011;5377;43.276;26.930;2023-05-23T11:01:56;4.53;;;3.65;;
10657;SDS011;5377;43.276;26.930;2023-05-23T11:04:26;5.07;;;4.47;;
10657;SDS011;5377;43.276;26.930;2023-05-23T11:06:54;7.30;;;4.45;;
10657;SDS011;5377;43.276;26.930;2023-05-23T11:09:22;7.55;;;3.92;;
10657;SDS011;5377;43.276;26.930;2023-05-23T11:11:52;6.22;;;4.63;;
10657;SDS011;5377;43.276;26.930;2023-05-23T11:17:29;8.55;;;5.00;;
10657;SDS011;5377;43.276;26.930;2023-05-23T11:19:57;7.05;;;4.35;;
10657;SDS011;5377;43.276;26.930;2023-05-23T11:22:31;6.90;;;5.22;;
10657;SDS011;5377;43.276;26.930;2023-05-23T11:24:59;12.52;;;5.38;;
10657;SDS011;5377;43.276;26.930;2023-05-23T11:27:27;6.18;;;4.65;;
10657;SDS011;5377;43.276;26.930;2023-05-23T11:29:58;6.05;;;4.40;;
10657;SDS011;5377;43.276;26.930;2023-05-23T11:32:29;4.85;;;4.40;;
10657;SDS011;5377;43.276;26.930;2023-05-23T11:35:00;5.55;;;4.65;;
10657;SDS011;5377;43.276;26.930;2023-05-23T11:37:27;3.95;;;3.60;;
10657;SDS011;5377;43.276;26.930;2023-05-23T11:39:56;2.92;;;2.63;;
10657;SDS011;5377;43.276;26.930;2023-05-23T11:42:23;12.68;;;3.67;;
10657;SDS011;5377;43.276;26.930;2023-05-23T11:44:50;3.83;;;3.10;;
10657;SDS011;5377;43.276;26.930;2023-05-23T11:47:17;6.18;;;3.10;;
10657;SDS011;5377;43.276;26.930;2023-05-23T11:49:45;8.10;;;3.20;;
10657;SDS011;5377;43.276;26.930;2023-05-23T11:52:12;5.38;;;3.30;;
10657;SDS011;5377;43.276;26.930;2023-05-23T11:54:40;6.90;;;3.40;;
10657;SDS011;5377;43.276;26.930;2023-05-23T11:57:09;8.43;;;4.45;;
10657;SDS011;5377;43.276;26.930;2023-05-23T11:59:38;5.82;;;3.38;;
10657;SDS011;5377;43.276;26.930;2023-05-23T12:02:05;7.55;;;3.33;;
10657;SDS011;5377;43.276;26.930;2023-05-23T12:04:33;6.57;;;3.20;;
10657;SDS011;5377;43.276;26.930;2023-05-23T12:07:03;5.10;;;4.10;;
10657;SDS011;5377;43.276;26.930;2023-05-23T12:09:31;4.43;;;3.58;;
10657;SDS011;5377;43.276;26.930;2023-05-23T12:12:06;4.82;;;3.90;;
10657;SDS011;5377;43.276;26.930;2023-05-23T12:14:35;4.13;;;3.78;;
10657;SDS011;5377;43.276;26.930;2023-05-23T12:17:08;4.32;;;3.90;;
10657;SDS011;5377;43.276;26.930;2023-05-23T12:19:36;5.82;;;3.80;;
10657;SDS011;5377;43.276;26.930;2023-05-23T12:22:04;4.57;;;4.22;;
10657;SDS011;5377;43.276;26.930;2023-05-23T12:24:32;4.90;;;4.25;;
10657;SDS011;5377;43.276;26.930;2023-05-23T12:27:00;5.13;;;4.43;;
10657;SDS011;5377;43.276;26.930;2023-05-23T12:29:28;4.93;;;4.28;;
10657;SDS011;5377;43.276;26.930;2023-05-23T12:31:58;4.55;;;4.18;;
10657;SDS011;5377;43.276;26.930;2023-05-23T12:34:26;6.93;;;5.40;;
10657;SDS011;5377;43.276;26.930;2023-05-23T12:36:56;9.13;;;5.80;;
10657;SDS011;5377;43.276;26.930;2023-05-23T12:39:24;7.03;;;6.13;;
10657;SDS011;5377;43.276;26.930;2023-05-23T12:41:52;7.05;;;5.45;;
10657;SDS011;5377;43.276;26.930;2023-05-23T12:44:20;5.65;;;5.15;;
10657;SDS011;5377;43.276;26.930;2023-05-23T12:46:47;11.25;;;4.90;;
10657;SDS011;5377;43.276;26.930;2023-05-23T12:49:15;4.72;;;4.30;;
10657;SDS011;5377;43.276;26.930;2023-05-23T12:51:42;5.82;;;3.10;;
10657;SDS011;5377;43.276;26.930;2023-05-23T12:54:09;2.95;;;2.58;;
10657;SDS011;5377;43.276;26.930;2023-05-23T12:56:36;5.18;;;2.97;;
10657;SDS011;5377;43.276;26.930;2023-05-23T12:59:02;6.97;;;3.65;;
10657;SDS011;5377;43.276;26.930;2023-05-23T13:01:29;5.47;;;4.88;;
10657;SDS011;5377;43.276;26.930;2023-05-23T13:03:58;2.50;;;2.00;;
10657;SDS011;5377;43.276;26.930;2023-05-23T13:06:27;2.60;;;1.98;;
10657;SDS011;5377;43.276;26.930;2023-05-23T13:08:53;2.50;;;2.40;;
10657;SDS011;5377;43.276;26.930;2023-05-23T13:11:21;5.25;;;2.72;;
10657;SDS011;5377;43.276;26.930;2023-05-23T13:13:48;5.22;;;3.92;;
10657;SDS011;5377;43.276;26.930;2023-05-23T13:16:15;3.05;;;2.75;;
10657;SDS011;5377;43.276;26.930;2023-05-23T13:18:42;3.47;;;3.08;;
10657;SDS011;5377;43.276;26.930;2023-05-23T13:21:09;6.47;;;3.53;;
10657;SDS011;5377;43.276;26.930;2023-05-23T13:23:37;4.88;;;4.05;;
10657;SDS011;5377;43.276;26.930;2023-05-23T13:26:04;3.67;;;3.33;;
10657;SDS011;5377;43.276;26.930;2023-05-23T13:28:32;2.78;;;2.40;;
10657;SDS011;5377;43.276;26.930;2023-05-23T13:30:59;3.22;;;2.20;;
10657;SDS011;5377;43.276;26.930;2023-05-23T13:33:27;2.38;;;2.15;;
10657;SDS011;5377;43.276;26.930;2023-05-23T13:35:54;3.00;;;2.60;;
10657;SDS011;5377;43.276;26.930;2023-05-23T13:38:21;3.35;;;2.60;;
10657;SDS011;5377;43.276;26.930;2023-05-23T13:40:50;2.45;;;2.30;;
10657;SDS011;5377;43.276;26.930;2023-05-23T13:43:17;3.65;;;2.72;;
10657;SDS011;5377;43.276;26.930;2023-05-23T13:45:43;6.15;;;4.15;;
10657;SDS011;5377;43.276;26.930;2023-05-23T13:48:11;4.07;;;3.30;;
10657;SDS011;5377;43.276;26.930;2023-05-23T13:50:38;3.70;;;3.08;;
10657;SDS011;5377;43.276;26.930;2023-05-23T13:53:05;5.00;;;3.55;;
10657;SDS011;5377;43.276;26.930;2023-05-23T13:55:38;5.32;;;4.00;;
10657;SDS011;5377;43.276;26.930;2023-05-23T13:58:06;11.27;;;4.90;;
10657;SDS011;5377;43.276;26.930;2023-05-23T14:00:33;6.60;;;3.17;;
10657;SDS011;5377;43.276;26.930;2023-05-23T14:03:01;19.40;;;4.15;;
10657;SDS011;5377;43.276;26.930;2023-05-23T14:05:28;15.10;;;4.30;;
10657;SDS011;5377;43.276;26.930;2023-05-23T14:07:55;20.10;;;5.00;;
10657;SDS011;5377;43.276;26.930;2023-05-23T14:10:22;30.30;;;6.90;;
10657;SDS011;5377;43.276;26.930;2023-05-23T14:12:49;56.50;;;10.13;;
10657;SDS011;5377;43.276;26.930;2023-05-23T14:15:17;5.82;;;5.22;;
10657;SDS011;5377;43.276;26.930;2023-05-23T14:17:44;6.78;;;4.90;;
10657;SDS011;5377;43.276;26.930;2023-05-23T14:20:11;7.07;;;4.72;;
10657;SDS011;5377;43.276;26.930;2023-05-23T14:22:38;6.90;;;3.90;;
10657;SDS011;5377;43.276;26.930;2023-05-23T14:25:05;2.90;;;2.70;;
10657;SDS011;5377;43.276;26.930;2023-05-23T14:27:32;2.75;;;2.58;;
10657;SDS011;5377;43.276;26.930;2023-05-23T14:29:59;6.47;;;2.80;;
10657;SDS011;5377;43.276;26.930;2023-05-23T14:32:27;4.57;;;3.47;;
10657;SDS011;5377;43.276;26.930;2023-05-23T14:34:54;12.55;;;5.38;;
10657;SDS011;5377;43.276;26.930;2023-05-23T14:37:21;8.68;;;3.63;;
10657;SDS011;5377;43.276;26.930;2023-05-23T14:39:47;11.75;;;4.47;;
10657;SDS011;5377;43.276;26.930;2023-05-23T14:42:14;11.70;;;6.70;;
10657;SDS011;5377;43.276;26.930;2023-05-23T14:44:41;20.30;;;4.82;;
10657;SDS011;5377;43.276;26.930;2023-05-23T14:47:08;55.72;;;7.72;;
10657;SDS011;5377;43.276;26.930;2023-05-23T14:49:36;37.63;;;6.35;;
10657;SDS011;5377;43.276;26.930;2023-05-23T14:52:03;55.83;;;8.48;;
10657;SDS011;5377;43.276;26.930;2023-05-23T14:54:30;78.55;;;9.60;;
10657;SDS011;5377;43.276;26.930;2023-05-23T14:56:57;39.97;;;6.43;;